Архив погоды в Донецке за Май, 2019 год

icon
Год:Все200220032004200520062007200820092010201120122013201420152016201720182019
Месяц:ЯнварьФевральМартАпрельМайИюньДекабрь
Дата Облачность Температура (д/н), °C Давление, мм Влажность, % Ветер, м/с
01.05.2019 Облачность пасмурно +18 / +10 733 60 Ю, 5
02.05.2019 Облачность ясно +17 / +7 730 47 Ю-З, 6
03.05.2019 Облачность пасмурно +18 / +10 733 52 Ю-З, 6
04.05.2019 Облачность пасмурно +19 / +9 737 45 Ю, 4
05.05.2019 Облачность ясно +21 / +10 739 33 Ю-В, 4
06.05.2019 Облачность ясно +21 / +14 735 40 Ю-В, 4
07.05.2019 Облачность ясно +25 / +15 731 38 Ю-В, 4
08.05.2019 Облачность пасмурно +18 / +14 734 89 В, 2
09.05.2019 Облачность пасмурно +12 / +7 736 85 Ю-З, 5
10.05.2019 Облачность ясно +16 / +7 736 53 З, 1
11.05.2019 Облачность пасмурно +15 / +11 739 66 В, 3
12.05.2019 Облачность пасмурно +22 / +12 741 43 В, 3
13.05.2019 Облачность пасмурно +22 / +13 741 42 С-З, 2
14.05.2019 Облачность пасмурно +24 / +13 739 39 З, 3
15.05.2019 Облачность ясно +26 / +14 740 36 С, 2
16.05.2019 Облачность ясно +26 / +16 738 44 С-В, 4
17.05.2019 Облачность пасмурно +29 / +17 737 38 В, 3
18.05.2019 Облачность ясно +26 / +15 735 46 В, 7
19.05.2019 Облачность ясно +26 / +15 736 32 В, 4
20.05.2019 Облачность ясно +26 / +14 740 27 С-В, 4
21.05.2019 Облачность ясно +24 / +17 740 28 Ю-В, 3
22.05.2019 Облачность дождь +16 / +13 740 96 Ю, 4
23.05.2019 Облачность дождь +18 / +14 737 84 З, 3
24.05.2019 Облачность дождь +24 / +15 738 49 Ю-З, 2
25.05.2019 Облачность дождь +22 / +15 737 61 Ю, 3
26.05.2019 Облачность дождь +20 / +15 737 76 Ю-З, 3
27.05.2019 Облачность пасмурно +24 / +12 743 37 С-З, 4
28.05.2019 Облачность пасмурно +26 / +15 744 33 Ю-В, 2
29.05.2019 Облачность пасмурно +26 / +15 742 36 Ю, 3
30.05.2019 Облачность ясно +28 / +18 741 37 Ю-В, 2
31.05.2019 Облачность ясно +27 / +18 745 39 С, 4
icon
Облачность:дождь дождь
Темп. днем:19..21 °C
Темп. ночью:14..16 °C
Давление:737 мм
Влажность:76 %
Ветер:ЮЗ, 3 м/с
icon
USDusd26,47(+0,00000)
RUBrub0,41(+0,00000)
EUReur29,62(+0,00000)
icon
Вс. 26 Май 2019
icon
Логин:
Код: ---
 
Реклама
icon